Архив погоды в Большой Мурте

Метеограмма Большая Мурта
Вторник, 23 Апреля
Время местн. Темп Ветер Видим Явления Облачность нижн/средн/верх Атм. давл. Влжн Точка росы ВНГО R Сост. почвы Tg s
Напр Скр Прв ур.ст ур.м изм
22:00 - +1.4° Ю,Ю-З 1 - - - - 748 765 -0.5 48% -8.3° - - - - -
19:00 +9.6° В,Ю-В 2 - 20 км - незначительная облачность 749 765 -1.3 22% -11.3° более 2.5 км 0 - - -
16:00 - +10.4° В,С-В 2 - - - - 750 766 -1.5 20% -11.5° - - - - -
13:00 +7.8° Ю 1 - 20 км - преимущественно облачно 752 768 -0.8 22% -12.5° 2.5 км - - - -
10:00 - +3.6° В,Ю-В 2 - - - - 752 769 -0.3 42% -8.2° - - - - -
07:00 -4.4° В,С-В 1 - 10 км - облачно с прояснениями 753 770 +0.4 72% -8.6° 2.5 км 0 Замерзшая -8° -
04:00 - -7° штиль 0 - - - - 752 770 +0.2 80% -9.9° - - - - -
01:00 - -5.1° штиль 0 - - - - 752 770 +0.6 68% -10.1° - - - - -
Понедельник, 22 Апреля
Время местн. Темп Ветер Видим Явления Облачность нижн/средн/верх Атм. давл. Влжн Точка росы ВНГО R Сост. почвы Tg s
Напр Скр Прв ур.ст ур.м изм
22:00 - -2.3° штиль 0 - - - - 752 769 +0.8 55% -10° - - - - -
19:00 +5.2° З 2 - 20 км - ясно 751 768 -0.1 24% -13.8° более 2.5 км 0 - - -
16:00 - +5.2° З 4 - - - - 751 768 0 23% -14.2° - - - - -
13:00 +3.4° З 4 - 20 км - облачно с прояснениями 751 768 +0.2 30% -12.4° 1 км - - - -
10:00 - -0.7° З 4 - - - - 751 768 +1.2 45% -11.2° - - - - -
07:00 -4.3° З 1 - 10 км - ясно 749 767 +1.5 65% -9.9° более 2.5 км 0 Сухой рассыпчатый снег (равномерный слой) - 2 см
04:00 - -6° З,Ю-З 2 - - - - 748 765 +1.4 74% -9.9° - - - - -
01:00 - -4.8° З 2 - - - - 746 764 +2.1 71% -9.2° - - - - -
Воскресенье, 21 Апреля
Время местн. Темп Ветер Видим Явления Облачность нижн/средн/верх Атм. давл. Влжн Точка росы ВНГО R Сост. почвы Tg s
Напр Скр Прв ур.ст ур.м изм
22:00 - -3.2° З 2 - - - - 744 761 +2.4 75% -7° - - - - -
19:00 -0.1° З 3 11 10 км - преимущественно облачно 742 759 +1.9 101% 1 км 2 - - -
16:00 - +3° С-З 3 14 - - - 740 757 +0.8 73% -1.3° - - - - -
13:00 +6° Ю-З 4 - 20 км - преимущественно облачно 739 756 +0.1 29% -10.8° 1 км - - - -
10:00 - +4.5° З 4 - - - - 739 756 -0.4 30% -11.4° - - - - -
07:00 -3° штиль 0 - 10 км - облачно с прояснениями 740 756 0 68% -8.1° 2.5 км 0 Влажная (без луж) -6° -
04:00 - -4.5° З,С-З 1 - - - - 740 757 -0.5 68% -9.4° - - - - -
01:00 - -3.3° З,С-З 2 - - - - 740 757 -0.5 58% -10.4° - - - - -
Суббота, 20 Апреля
Время местн. Темп Ветер Видим Явления Облачность нижн/средн/верх Атм. давл. Влжн Точка росы ВНГО R Сост. почвы Tg s
Напр Скр Прв ур.ст ур.м изм
22:00 - -1.8° З 1 - - - - 741 757 -0.5 51% -10.5° - - - - -
19:00 +7.2° Ю 2 - 20 км - переменная облачность 741 757 -1.1 20% -14.1° 1.5 км 0 - - -